Time;durP1;ratioP1;P1;durP2;ratioP2;P2;SDS_P1;SDS_P2;PMS_P1;PMS_P2;Temp;Humidity;BMP_temperature;BMP_pressure;BME280_temperature;BME280_humidity;BME280_pressure;Samples;Min_cycle;Max_cycle;Signal;HPM_P1;HPM_P2
2021/11/18 00:01:46;;;;;;;31.07;17.40;;;;;;;-3.33;69.74;100492.11;1761095;80;20946;-58
2021/11/18 00:04:08;;;;;;;33.75;15.75;;;;;;;-3.37;69.80;100487.69;1697431;83;21726;-58
2021/11/18 00:06:35;;;;;;;27.77;16.52;;;;;;;-3.36;69.72;100486.45;1731938;80;20960;-57
2021/11/18 00:09:03;;;;;;;31.82;17.25;;;;;;;-3.37;69.74;100479.98;1758479;80;21419;-58
2021/11/18 00:11:31;;;;;;;29.82;16.80;;;;;;;-3.39;69.82;100473.92;1753535;80;21449;-58
2021/11/18 00:13:57;;;;;;;31.30;18.20;;;;;;;-3.38;69.80;100474.39;1756605;80;21066;-58
2021/11/18 00:16:25;;;;;;;29.72;17.70;;;;;;;-3.39;69.86;100469.67;1750982;80;21489;-58
2021/11/18 00:18:51;;;;;;;31.75;16.35;;;;;;;-3.38;69.80;100467.97;1761402;80;20999;-59
2021/11/18 00:21:28;;;;;;;30.37;15.95;;;;;;;-3.41;69.95;100464.02;1758968;80;21478;-58
2021/11/18 00:23:56;;;;;;;30.77;16.30;;;;;;;-3.42;69.99;100463.16;1761306;80;21488;-58
2021/11/18 00:26:25;;;;;;;28.95;15.80;;;;;;;-3.43;69.94;100465.25;1754554;80;21488;-58
2021/11/18 00:28:52;;;;;;;32.20;15.53;;;;;;;-3.44;69.92;100464.81;1761077;80;21792;-58
2021/11/18 00:31:22;;;;;;;22.67;15.48;;;;;;;-3.45;69.95;100468.20;1754432;80;21660;-58
2021/11/18 00:33:49;;;;;;;31.90;16.90;;;;;;;-3.45;69.97;100469.91;1763598;80;21459;-58
2021/11/18 00:36:16;;;;;;;28.60;13.53;;;;;;;-3.43;70.04;100468.25;1761312;80;21503;-58
2021/11/18 00:38:43;;;;;;;36.33;15.75;;;;;;;-3.46;70.10;100466.91;1748411;80;21538;-58
2021/11/18 00:41:12;;;;;;;29.48;16.62;;;;;;;-3.44;70.05;100462.67;1749726;80;21831;-58
2021/11/18 00:43:39;;;;;;;29.02;15.80;;;;;;;-3.45;70.07;100466.05;1763562;80;20934;-58
2021/11/18 00:46:05;;;;;;;29.70;16.15;;;;;;;-3.41;70.02;100466.20;1762210;80;21640;-58
2021/11/18 00:48:32;;;;;;;23.37;12.30;;;;;;;-3.40;69.88;100467.06;1747330;80;21637;-58
2021/11/18 00:51:04;;;;;;;30.45;15.78;;;;;;;-3.42;69.91;100459.72;1762909;80;21422;-59
2021/11/18 00:53:31;;;;;;;27.87;16.32;;;;;;;-3.37;69.95;100460.30;1755801;80;21801;-58
2021/11/18 00:55:58;;;;;;;30.02;16.65;;;;;;;-3.38;69.75;100456.39;1763189;80;21494;-58
2021/11/18 00:58:25;;;;;;;30.43;18.00;;;;;;;-3.38;69.65;100466.25;1757992;80;21530;-58
2021/11/18 01:00:53;;;;;;;29.55;15.85;;;;;;;-3.42;69.65;100455.44;1761665;80;21542;-58
2021/11/18 01:03:22;;;;;;;28.90;15.07;;;;;;;-3.44;69.61;100454.53;1771908;80;20962;-58
2021/11/18 01:05:51;;;;;;;32.10;16.25;;;;;;;-3.45;69.39;100462.20;1771550;80;21804;-58
2021/11/18 01:08:18;;;;;;;30.62;15.13;;;;;;;-3.46;69.49;100459.19;1771567;80;21475;-58
2021/11/18 01:10:52;;;;;;;30.75;16.25;;;;;;;-3.47;69.42;100452.28;1753922;80;20982;-59
2021/11/18 01:13:20;;;;;;;26.05;15.72;;;;;;;-3.50;69.41;100447.95;1763646;80;21411;-58
2021/11/18 01:15:47;;;;;;;;;;;;;;;-3.51;69.47;100447.47;1769481;80;21565;-58
2021/11/18 01:18:14;;;;;;;28.42;14.50;;;;;;;-3.53;69.55;100448.71;1764285;80;21975;-58
2021/11/18 01:20:42;;;;;;;28.23;15.58;;;;;;;-3.54;69.54;100446.13;1762646;80;21420;-58
2021/11/18 01:23:13;;;;;;;26.77;16.07;;;;;;;-3.56;69.50;100446.08;1771743;80;21502;-58
2021/11/18 01:25:40;;;;;;;29.30;15.35;;;;;;;-3.59;69.60;100444.70;1773746;80;21565;-58
2021/11/18 01:28:08;;;;;;;29.57;15.83;;;;;;;-3.64;69.67;100441.55;1771264;80;21542;-58
2021/11/18 01:30:36;;;;;;;33.15;16.50;;;;;;;-3.70;69.87;100440.96;1763505;80;21798;-58
2021/11/18 01:33:05;;;;;;;28.65;15.40;;;;;;;-3.73;70.05;100439.58;1765587;80;21472;-58
2021/11/18 01:35:34;;;;;;;31.75;14.87;;;;;;;-3.75;70.04;100437.39;1753060;80;21562;-58
2021/11/18 01:38:01;;;;;;;28.62;16.12;;;;;;;-3.80;70.19;100440.27;1768814;80;21412;-58
2021/11/18 01:40:32;;;;;;;25.05;14.73;;;;;;;-3.75;70.27;100442.13;1755240;80;21434;-58
2021/11/18 01:43:03;;;;;;;32.73;16.77;;;;;;;-3.77;70.28;100437.37;1701951;82;22167;-59
2021/11/18 01:45:31;;;;;;;28.92;16.37;;;;;;;-3.76;70.24;100439.09;1765197;80;21490;-59
2021/11/18 01:47:57;;;;;;;;;;;;;;;-3.73;70.23;100431.48;1773329;80;21404;-59
2021/11/18 01:50:28;;;;;;;29.90;15.30;;;;;;;-3.71;70.19;100437.95;1766709;80;20453;-60
2021/11/18 01:52:55;;;;;;;34.67;14.68;;;;;;;-3.74;70.11;100436.57;1756204;80;21526;-58
2021/11/18 01:55:23;;;;;;;30.40;15.85;;;;;;;-3.77;70.19;100433.52;1769370;80;22088;-58
2021/11/18 01:57:51;;;;;;;35.33;16.62;;;;;;;-3.75;70.13;100430.96;1771555;80;28628;-58
2021/11/18 02:00:28;;;;;;;30.35;16.05;;;;;;;-3.76;70.03;100432.67;1767527;80;21890;-58
2021/11/18 02:02:55;;;;;;;35.90;18.45;;;;;;;-3.74;70.00;100434.00;1752783;80;21522;-58
2021/11/18 02:06:02;;;;;;;35.58;17.73;;;;;;;-3.69;69.65;100427.30;1677341;83;21569;-57
2021/11/18 02:09:48;;;;;;;29.32;16.25;;;;;;;-3.68;69.47;100423.02;1767989;79;23211;-60
2021/11/18 02:12:24;;;;;;;28.77;16.52;;;;;;;-3.72;69.43;100420.78;1743701;80;21452;-59
2021/11/18 02:14:52;;;;;;;23.67;15.25;;;;;;;-3.72;69.50;100420.78;1747645;80;21864;-59
2021/11/18 02:17:20;;;;;;;30.60;16.20;;;;;;;-3.70;69.39;100411.41;1736908;80;21416;-59
2021/11/18 02:19:57;;;;;;;31.90;17.00;;;;;;;-3.68;69.30;100405.02;1729418;80;21487;-59
2021/11/18 02:22:24;;;;;;;33.18;16.30;;;;;;;-3.70;69.35;100401.12;1745241;80;21593;-61
2021/11/18 02:25:00;;;;;;;34.08;16.48;;;;;;;-3.69;69.30;100396.84;1735914;81;21053;-59
2021/11/18 02:27:30;;;;;;;29.35;16.65;;;;;;;-3.69;69.02;100403.27;1735212;80;21529;-59
2021/11/18 02:29:58;;;;;;;26.80;16.90;;;;;;;-3.72;69.01;100405.36;1726097;80;21545;-58
2021/11/18 02:32:31;;;;;;;32.05;16.20;;;;;;;-3.75;68.95;100401.41;1744953;81;21478;-58
2021/11/18 02:35:07;;;;;;;31.75;17.05;;;;;;;-3.85;69.01;100385.30;1734563;81;21501;-58
2021/11/18 02:37:34;;;;;;;35.35;17.32;;;;;;;-3.78;69.12;100404.77;1731874;81;21521;-58
2021/11/18 02:40:02;;;;;;;29.63;15.43;;;;;;;-3.79;69.01;100404.30;1729969;80;21479;-57
2021/11/18 02:42:30;;;;;;;31.80;16.48;;;;;;;-3.83;69.03;100405.05;1726692;81;21494;-58
2021/11/18 02:44:57;;;;;;;;;;;;;;;-3.85;69.00;100400.71;1718851;81;21537;-58
2021/11/18 02:47:24;;;;;;;;;;;;;;;-3.86;68.99;100401.13;1737250;80;20550;-57
2021/11/18 02:49:52;;;;;;;26.40;15.77;;;;;;;-3.85;69.10;100398.14;1738675;80;20421;-58
2021/11/18 02:52:27;;;;;;;28.25;15.18;;;;;;;-3.86;68.97;100393.81;1726335;81;21834;-57
2021/11/18 02:55:00;;;;;;;24.00;14.15;;;;;;;-3.91;68.87;100398.42;1736181;80;21515;-57
2021/11/18 02:57:28;;;;;;;29.92;15.95;;;;;;;-3.97;69.04;100395.69;1738754;80;21494;-58
2021/11/18 02:59:55;;;;;;;30.82;15.93;;;;;;;-4.05;69.41;100390.77;1741085;80;21373;-58
2021/11/18 03:02:22;;;;;;;29.27;16.35;;;;;;;-4.07;69.65;100391.10;1734540;81;21471;-57
2021/11/18 03:04:48;;;;;;;27.55;16.77;;;;;;;-4.05;69.79;100392.44;1740118;80;22131;-58
2021/11/18 03:07:15;;;;;;;32.67;16.45;;;;;;;-4.06;69.63;100393.28;1740079;80;21538;-58
2021/11/18 03:09:42;;;;;;;25.25;15.30;;;;;;;-4.10;69.78;100394.89;1732907;80;21408;-58
2021/11/18 03:12:09;;;;;;;27.57;16.83;;;;;;;-4.13;69.78;100392.22;1742115;80;21558;-58
2021/11/18 03:14:37;;;;;;;29.70;15.60;;;;;;;-4.14;69.97;100398.20;1737961;80;21541;-58
2021/11/18 03:17:03;;;;;;;20.27;11.43;;;;;;;-4.23;69.93;100379.96;1733980;81;21799;-58
2021/11/18 03:19:33;;;;;;;30.05;16.05;;;;;;;-4.16;70.04;100398.58;1730487;80;21479;-58
2021/11/18 03:22:00;;;;;;;27.40;15.05;;;;;;;-4.13;70.09;100392.22;1724126;81;21511;-58
2021/11/18 03:24:27;;;;;;;29.10;15.48;;;;;;;-4.13;70.06;100392.22;1740627;80;21581;-58
2021/11/18 03:26:53;;;;;;;50.38;25.08;;;;;;;-4.10;69.93;100392.32;1726573;80;21474;-59
2021/11/18 03:29:22;;;;;;;176.72;85.28;;;;;;;-4.08;70.10;100393.23;1739638;81;21431;-58
2021/11/18 03:31:50;;;;;;;85.32;36.80;;;;;;;-4.08;69.89;100385.95;1738193;80;27077;-58
2021/11/18 03:34:20;;;;;;;285.55;151.78;;;;;;;-4.13;69.66;100377.67;1741596;80;21593;-58
2021/11/18 03:36:47;;;;;;;438.65;300.18;;;;;;;-4.17;69.72;100378.42;1725376;80;21597;-58
2021/11/18 03:39:14;;;;;;;659.37;581.97;;;;;;;-4.20;69.81;100381.31;1729094;81;21465;-58
2021/11/18 03:41:46;;;;;;;305.70;245.45;;;;;;;-4.23;70.17;100382.11;1727292;80;21807;-58
2021/11/18 03:44:14;;;;;;;142.57;126.85;;;;;;;-4.21;70.47;100379.59;1741364;80;21523;-57
2021/11/18 03:46:50;;;;;;;71.17;49.83;;;;;;;-4.12;70.44;100383.28;1731577;81;21454;-57
2021/11/18 03:49:18;;;;;;;46.35;27.73;;;;;;;-4.09;70.50;100378.63;1731372;80;21643;-57
2021/11/18 03:51:47;;;;;;;140.75;119.13;;;;;;;-4.06;70.53;100366.31;1734185;80;21920;-57
2021/11/18 03:54:15;;;;;;;54.42;37.75;;;;;;;-4.06;70.60;100369.74;1725713;80;22235;-58
2021/11/18 03:56:43;;;;;;;47.98;30.25;;;;;;;-4.06;70.74;100365.89;1730567;81;20997;-58
2021/11/18 03:59:14;;;;;;;58.23;32.65;;;;;;;-4.05;70.80;100367.64;1732575;80;20982;-58
2021/11/18 04:01:42;;;;;;;52.95;34.20;;;;;;;-4.05;71.01;100365.07;1734655;80;21498;-58
2021/11/18 04:04:12;;;;;;;56.90;34.88;;;;;;;-4.01;71.03;100363.43;1739836;81;21565;-57
2021/11/18 04:06:41;;;;;;;53.70;31.77;;;;;;;-4.05;71.17;100366.75;1731498;80;21478;-58
2021/11/18 04:09:08;;;;;;;52.20;28.45;;;;;;;-4.00;71.20;100372.47;1734317;80;21534;-58
2021/11/18 04:11:35;;;;;;;63.23;48.28;;;;;;;-4.04;71.42;100371.94;1748013;81;21447;-58
2021/11/18 04:14:05;;;;;;;50.95;30.55;;;;;;;-4.04;71.44;100371.07;1732215;79;21573;-59
2021/11/18 04:16:33;;;;;;;65.75;34.78;;;;;;;-4.07;71.24;100371.84;1730739;80;21411;-59
2021/11/18 04:19:00;;;;;;;45.73;23.18;;;;;;;-4.07;71.20;100369.69;1732295;80;21439;-59
2021/11/18 04:21:31;;;;;;;43.93;24.67;;;;;;;-4.06;71.29;100375.30;1742882;81;21426;-59
2021/11/18 04:23:55;;;;;;;41.35;20.60;;;;;;;-4.07;71.28;100373.13;1733499;80;21468;-59
2021/11/18 04:26:22;;;;;;;48.20;25.75;;;;;;;-4.08;71.18;100367.97;1738274;80;21518;-59
2021/11/18 04:28:48;;;;;;;63.28;35.38;;;;;;;-4.03;71.25;100363.80;1727088;80;21053;-58
2021/11/18 04:31:18;;;;;;;57.30;34.75;;;;;;;-4.02;71.13;100356.14;1727886;80;21785;-59
2021/11/18 04:33:45;;;;;;;35.35;19.95;;;;;;;-4.01;71.13;100346.34;1735331;80;21427;-62
2021/11/18 04:36:16;;;;;;;58.00;32.30;;;;;;;-3.99;71.13;100339.55;1723734;81;21503;-59
2021/11/18 04:38:43;;;;;;;59.83;32.90;;;;;;;-3.96;71.07;100334.89;1730790;80;20947;-58
2021/11/18 04:41:12;;;;;;;41.65;27.07;;;;;;;-3.98;71.17;100327.14;1729962;80;21486;-57
2021/11/18 04:43:40;;;;;;;123.92;53.52;;;;;;;-3.97;71.17;100335.31;1749054;79;21807;-58
2021/11/18 04:46:09;;;;;;;123.02;54.90;;;;;;;-3.96;71.09;100337.03;1726189;80;21048;-58
2021/11/18 04:48:38;;;;;;;39.80;22.85;;;;;;;-3.98;71.11;100330.98;1733781;80;21518;-58
2021/11/18 04:51:08;;;;;;;140.70;53.63;;;;;;;-3.99;71.18;100330.98;1737868;80;21597;-58
2021/11/18 04:53:36;;;;;;;63.80;29.20;;;;;;;-4.00;71.15;100335.22;1728327;80;21480;-58
2021/11/18 04:56:04;;;;;;;40.28;22.52;;;;;;;-4.05;71.11;100331.68;1732600;80;22152;-59
2021/11/18 04:58:33;;;;;;;45.92;24.20;;;;;;;-4.07;71.32;100333.73;1735132;81;21494;-59
2021/11/18 05:01:00;;;;;;;31.85;17.20;;;;;;;-4.12;71.49;100337.05;1741858;80;21484;-59
2021/11/18 05:03:28;;;;;;;29.57;16.65;;;;;;;-4.15;71.60;100327.09;1735956;81;21514;-58
2021/11/18 05:05:56;;;;;;;27.30;16.67;;;;;;;-4.13;71.60;100333.14;1726234;80;21562;-58
2021/11/18 05:08:23;;;;;;;29.77;16.48;;;;;;;-4.13;71.60;100336.58;1727812;80;21495;-58
2021/11/18 05:10:51;;;;;;;30.45;16.37;;;;;;;-4.20;71.49;100334.70;1726168;82;21499;-58
2021/11/18 05:13:20;;;;;;;27.07;16.65;;;;;;;-4.21;71.60;100334.64;1731375;81;21503;-58
2021/11/18 05:15:50;;;;;;;30.92;16.67;;;;;;;-4.20;71.58;100335.98;1724326;81;21049;-58
2021/11/18 05:18:18;;;;;;;34.18;19.62;;;;;;;-4.22;71.63;100335.06;1729045;81;21562;-58
2021/11/18 05:20:45;;;;;;;36.88;20.20;;;;;;;-4.25;71.61;100341.39;1720420;81;21805;-58
2021/11/18 05:23:12;;;;;;;43.20;24.67;;;;;;;-4.26;71.69;100339.63;1724866;81;21537;-58
2021/11/18 05:25:41;;;;;;;40.58;25.72;;;;;;;-4.26;71.89;100334.50;1718184;81;21550;-59
2021/11/18 05:28:08;;;;;;;;;;;;;;;-4.28;71.83;100346.84;1724834;81;21539;-59
2021/11/18 05:30:35;;;;;;;36.50;20.83;;;;;;;-4.30;71.92;100339.09;1716355;82;20136;-59
2021/11/18 05:33:07;;;;;;;33.42;19.55;;;;;;;-4.30;71.82;100324.55;1728807;80;21816;-59
2021/11/18 05:35:34;;;;;;;31.42;17.32;;;;;;;-4.29;71.75;100331.86;1720462;81;21467;-59
2021/11/18 05:38:02;;;;;;;28.83;17.73;;;;;;;-4.28;71.79;100326.30;1721393;81;21046;-59
2021/11/18 05:40:29;;;;;;;35.60;21.10;;;;;;;-4.30;71.75;100336.53;1731198;81;21519;-60
2021/11/18 05:42:56;;;;;;;30.75;18.00;;;;;;;-4.31;71.93;100337.38;1712954;81;21428;-58
2021/11/18 05:45:26;;;;;;;30.85;19.37;;;;;;;-4.30;71.93;100330.97;1733882;81;21791;-58
2021/11/18 05:47:55;;;;;;;32.35;18.35;;;;;;;-4.30;72.03;100336.53;1717489;81;21427;-59
2021/11/18 05:50:22;;;;;;;34.38;16.50;;;;;;;-4.29;72.11;100342.14;1715154;81;20976;-58
2021/11/18 05:52:49;;;;;;;30.52;16.37;;;;;;;-4.28;72.07;100340.01;1717012;81;21570;-59
2021/11/18 05:55:18;;;;;;;34.23;19.57;;;;;;;-4.26;72.05;100343.91;1729220;81;21460;-58
2021/11/18 05:57:46;;;;;;;38.13;21.33;;;;;;;-4.24;71.94;100343.53;1718389;81;21783;-58
2021/11/18 06:00:19;;;;;;;;;;;;;;;-4.18;71.84;100338.17;1729120;81;21036;-59
2021/11/18 06:02:49;;;;;;;36.75;19.60;;;;;;;-4.17;71.66;100346.31;1725703;82;20181;-59
2021/11/18 06:05:16;;;;;;;30.80;20.57;;;;;;;-4.10;71.49;100346.09;1727787;80;21674;-60
2021/11/18 06:07:45;;;;;;;38.42;21.37;;;;;;;-4.11;71.49;100340.48;1720291;81;21460;-60
2021/11/18 06:10:13;;;;;;;33.38;20.05;;;;;;;-4.06;71.63;100338.05;1733008;81;21696;-59
2021/11/18 06:12:40;;;;;;;37.73;22.22;;;;;;;-4.09;71.68;100341.81;1734955;80;21450;-59
2021/11/18 06:15:09;;;;;;;;;;;;;;;-4.09;71.89;100341.39;1746167;80;21570;-60
2021/11/18 06:17:37;;;;;;;31.80;20.27;;;;;;;-4.01;71.96;100341.20;1731839;80;20406;-59
2021/11/18 06:20:05;;;;;;;34.63;18.90;;;;;;;-4.01;71.99;100343.77;1725775;80;21116;-60
2021/11/18 06:22:34;;;;;;;32.60;19.37;;;;;;;-4.01;71.99;100342.88;1731247;81;21835;-58
2021/11/18 06:25:04;;;;;;;35.75;18.62;;;;;;;-4.01;72.10;100339.92;1740785;80;21604;-58
2021/11/18 06:27:32;;;;;;;32.78;17.87;;;;;;;-4.00;72.27;100336.50;1731981;80;21526;-58
2021/11/18 06:30:00;;;;;;;30.15;18.92;;;;;;;-3.96;72.59;100333.61;1724813;80;21502;-59
2021/11/18 06:32:27;;;;;;;33.38;20.37;;;;;;;-3.93;72.40;100333.27;1737527;81;21471;-58
2021/11/18 06:34:55;;;;;;;34.20;19.23;;;;;;;-3.87;72.01;100341.98;1743065;80;22204;-58
2021/11/18 06:37:21;;;;;;;40.60;20.77;;;;;;;-3.90;71.98;100346.61;1742242;80;21478;-59
2021/11/18 06:39:48;;;;;;;35.28;20.48;;;;;;;-3.87;72.10;100344.55;1740276;80;21577;-59
2021/11/18 06:42:17;;;;;;;34.65;20.20;;;;;;;-3.84;72.27;100339.09;1741481;80;21589;-59
2021/11/18 06:44:46;;;;;;;29.35;18.87;;;;;;;-3.78;72.31;100339.66;1738989;80;21435;-59
2021/11/18 06:47:12;;;;;;;36.83;20.52;;;;;;;-3.75;72.53;100334.19;1731900;80;21569;-60
2021/11/18 06:49:42;;;;;;;36.45;20.60;;;;;;;-3.66;72.58;100333.54;1738455;80;21518;-59
2021/11/18 06:52:10;;;;;;;39.25;21.05;;;;;;;-3.57;72.62;100335.06;1728648;80;21502;-59
2021/11/18 06:54:37;;;;;;;37.05;20.95;;;;;;;-3.45;72.58;100336.20;1738898;80;21484;-60
2021/11/18 06:57:05;;;;;;;38.60;21.42;;;;;;;-3.37;72.39;100333.00;1729635;80;21676;-57
2021/11/18 06:59:34;;;;;;;34.58;20.82;;;;;;;-3.29;72.12;100326.76;1731241;80;21729;-55
2021/11/18 07:02:01;;;;;;;34.35;20.62;;;;;;;-3.23;72.00;100323.45;1730798;80;21501;-55
2021/11/18 07:04:28;;;;;;;40.33;20.55;;;;;;;-3.17;71.99;100327.45;1742766;80;27432;-59
2021/11/18 07:06:55;;;;;;;33.55;20.32;;;;;;;-3.11;71.76;100328.87;1733903;80;21582;-57
2021/11/18 07:09:22;;;;;;;37.17;21.60;;;;;;;-3.04;71.57;100332.48;1740016;80;21561;-56
2021/11/18 07:11:57;;;;;;;36.98;21.30;;;;;;;-3.00;71.13;100326.56;1738951;80;22025;-56
2021/11/18 07:14:24;;;;;;;33.25;20.10;;;;;;;-3.04;71.07;100323.05;1734761;80;21438;-57
2021/11/18 07:16:54;;;;;;;37.70;21.97;;;;;;;-2.98;71.30;100323.60;1737090;81;20974;-56
2021/11/18 07:19:21;;;;;;;39.25;20.43;;;;;;;-2.94;71.38;100321.16;1738032;80;21502;-56
2021/11/18 07:21:48;;;;;;;41.00;20.82;;;;;;;-2.88;71.48;100318.24;1727553;80;21592;-56
2021/11/18 07:24:17;;;;;;;38.55;21.12;;;;;;;-2.77;71.56;100327.97;1734888;80;21799;-56
2021/11/18 07:26:44;;;;;;;40.05;19.73;;;;;;;-2.71;71.06;100328.52;1732949;80;21431;-58
2021/11/18 07:29:11;;;;;;;37.23;21.67;;;;;;;-2.66;70.96;100328.17;1727915;81;21541;-56
2021/11/18 07:31:38;;;;;;;37.75;21.55;;;;;;;-2.59;70.72;100322.76;1740814;80;21562;-56
2021/11/18 07:34:05;;;;;;;41.67;23.00;;;;;;;-2.53;71.06;100329.31;1732280;80;21503;-56
2021/11/18 07:36:33;;;;;;;45.23;22.93;;;;;;;-2.42;71.27;100334.27;1720655;81;21763;-56
2021/11/18 07:39:01;;;;;;;51.20;25.15;;;;;;;-2.30;71.05;100325.06;1731895;81;25465;-56
2021/11/18 07:41:29;;;;;;;39.00;22.20;;;;;;;-2.19;71.39;100324.85;1712347;81;20989;-56
2021/11/18 07:43:58;;;;;;;43.15;22.75;;;;;;;-2.09;71.06;100322.92;1728851;81;21045;-56
2021/11/18 07:46:32;;;;;;;44.38;23.90;;;;;;;-2.02;71.01;100322.17;1700113;81;21478;-55
2021/11/18 07:49:04;;;;;;;44.60;24.57;;;;;;;-1.88;71.12;100316.44;1728094;80;22122;-56
2021/11/18 07:51:32;;;;;;;41.53;24.50;;;;;;;-1.78;71.17;100319.62;1727598;80;21475;-55
2021/11/18 07:54:00;;;;;;;47.48;25.90;;;;;;;-1.66;70.64;100318.53;1737076;81;21454;-55
2021/11/18 07:56:26;;;;;;;51.83;26.97;;;;;;;-1.58;70.64;100318.27;1722944;80;21475;-55
2021/11/18 07:58:54;;;;;;;47.50;25.97;;;;;;;-1.49;70.10;100317.53;1733199;80;21474;-58
2021/11/18 08:01:20;;;;;;;49.40;25.65;;;;;;;-1.43;70.37;100312.89;1735444;80;22492;-55
2021/11/18 08:03:49;;;;;;;58.78;27.93;;;;;;;-1.32;70.61;100315.66;1736024;80;21482;-54
2021/11/18 08:06:26;;;;;;;60.23;29.50;;;;;;;-1.19;69.88;100311.13;1729775;81;21459;-55
2021/11/18 08:08:56;;;;;;;60.30;31.15;;;;;;;-1.09;69.87;100309.16;1734621;80;21407;-55
2021/11/18 08:11:31;;;;;;;61.18;29.70;;;;;;;-1.00;69.61;100305.83;1748567;80;21424;-54
2021/11/18 08:13:58;;;;;;;56.70;28.55;;;;;;;-0.89;69.59;100305.98;1720037;82;21760;-53
2021/11/18 08:16:25;;;;;;;51.28;27.27;;;;;;;-0.76;69.13;100300.58;1721898;81;21495;-55
2021/11/18 08:18:54;;;;;;;46.48;26.33;;;;;;;-0.67;69.04;100309.75;1711870;81;21440;-54
2021/11/18 08:21:23;;;;;;;53.00;27.48;;;;;;;-0.57;69.11;100299.11;1721605;81;21399;-54
2021/11/18 08:23:51;;;;;;;49.53;26.30;;;;;;;-0.48;69.06;100292.77;1731854;80;21467;-55
2021/11/18 08:26:20;;;;;;;43.45;24.85;;;;;;;-0.36;68.74;100290.75;1729019;81;22022;-54
2021/11/18 08:28:47;;;;;;;46.47;24.97;;;;;;;-0.26;68.60;100293.47;1715641;81;21455;-53
2021/11/18 08:31:14;;;;;;;45.75;26.57;;;;;;;-0.06;68.35;100287.64;1722228;82;21519;-55
2021/11/18 08:33:43;;;;;;;49.38;26.97;;;;;;;0.03;67.98;100279.98;1719704;81;21559;-54
2021/11/18 08:36:11;;;;;;;56.42;28.00;;;;;;;0.17;67.73;100283.98;1720039;81;21003;-54
2021/11/18 08:38:38;;;;;;;41.33;24.25;;;;;;;0.26;67.59;100281.49;1715882;81;21855;-54
2021/11/18 09:05:39;;;;;;;36.28;22.32;;;;;;;1.06;66.62;100276.08;1704333;83;21027;-53
2021/11/18 09:08:07;;;;;;;40.33;23.55;;;;;;;1.32;66.10;100268.46;1704457;83;21420;-53
2021/11/18 09:10:36;;;;;;;35.30;23.02;;;;;;;1.50;66.19;100274.14;1713299;82;21464;-54
2021/11/18 09:13:05;;;;;;;33.33;21.60;;;;;;;1.69;66.09;100265.56;1734014;81;21432;-53
2021/11/18 09:15:34;;;;;;;34.23;21.10;;;;;;;1.88;65.45;100260.43;1733964;82;20935;-53
2021/11/18 09:18:02;;;;;;;28.98;20.62;;;;;;;2.12;65.31;100264.81;1733891;82;21487;-53
2021/11/18 09:20:32;;;;;;;32.95;21.37;;;;;;;2.44;64.23;100263.53;1733496;81;21531;-54
2021/11/18 09:22:59;;;;;;;39.27;24.60;;;;;;;2.83;63.48;100252.70;1734148;82;21014;-54
2021/11/18 09:25:36;;;;;;;37.75;25.00;;;;;;;3.28;62.88;100250.86;1732278;81;21733;-54
2021/11/18 09:28:05;;;;;;;48.78;30.65;;;;;;;3.67;61.17;100248.98;1727194;81;21403;-53
2021/11/18 09:30:40;;;;;;;28.35;19.25;;;;;;;3.97;60.06;100248.80;1728120;80;21636;-54
2021/11/18 09:33:08;;;;;;;54.80;31.60;;;;;;;4.31;59.97;100247.27;1720673;81;21862;-54
2021/11/18 09:35:39;;;;;;;44.00;28.37;;;;;;;4.62;59.16;100244.84;1738780;81;20995;-54
2021/11/18 09:38:07;;;;;;;30.00;19.65;;;;;;;4.98;57.96;100249.72;1715875;81;21673;-54
2021/11/18 09:40:40;;;;;;;29.37;19.87;;;;;;;5.08;56.73;100238.30;1727888;81;21411;-54
2021/11/18 09:43:35;;;;;;;34.35;19.73;;;;;;;5.00;56.55;100236.23;1724852;81;21614;-55
2021/11/18 09:46:38;;;;;;;28.35;18.20;;;;;;;5.15;56.37;100229.99;1727852;80;21578;-54
2021/11/18 09:49:22;;;;;;;25.92;17.90;;;;;;;5.39;55.81;100228.84;1725290;80;22037;-55
2021/11/18 09:52:07;;;;;;;27.25;18.55;;;;;;;5.68;55.41;100228.91;1722324;80;21796;-56
2021/11/18 09:54:56;;;;;;;26.65;17.23;;;;;;;5.83;53.81;100226.08;1721892;80;21498;-55
2021/11/18 09:57:59;;;;;;;26.25;17.80;;;;;;;6.02;54.70;100216.27;1725284;80;21830;-55
2021/11/18 10:01:01;;;;;;;23.22;17.32;;;;;;;6.53;52.40;100207.63;1712940;81;21089;-55
2021/11/18 10:04:02;;;;;;;24.52;16.25;;;;;;;6.81;52.22;100206.23;1725199;80;21539;-56
2021/11/18 10:06:39;;;;;;;22.75;16.93;;;;;;;7.11;51.04;100199.16;1726137;80;21806;-57
2021/11/18 10:09:15;;;;;;;24.90;16.93;;;;;;;7.07;50.97;100189.20;1725023;80;21605;-54
2021/11/18 10:12:11;;;;;;;26.30;17.80;;;;;;;6.80;51.79;100195.38;1732889;80;21415;-54
2021/11/18 10:15:00;;;;;;;19.67;16.17;;;;;;;6.45;52.46;100193.84;1737185;80;21533;-55
2021/11/18 10:17:46;;;;;;;25.45;17.52;;;;;;;6.01;52.95;100191.06;1730792;80;21434;-54
2021/11/18 10:20:34;;;;;;;25.15;18.27;;;;;;;5.45;53.94;100187.89;1732773;80;22073;-55
2021/11/18 10:23:09;;;;;;;27.70;17.98;;;;;;;5.18;54.94;100179.10;1725874;81;21447;-54
2021/11/18 10:25:43;;;;;;;22.35;16.48;;;;;;;4.83;55.72;100170.81;1733473;80;21590;-54
2021/11/18 10:28:25;;;;;;;24.80;18.42;;;;;;;4.70;56.33;100177.03;1730143;80;21613;-54
2021/11/18 10:31:17;;;;;;;23.18;16.85;;;;;;;4.64;56.59;100174.50;1746627;80;21623;-55
2021/11/18 10:34:12;;;;;;;26.48;17.00;;;;;;;4.62;57.05;100168.45;1737972;80;21533;-53
2021/11/18 10:37:07;;;;;;;28.42;17.62;;;;;;;4.55;56.84;100168.08;1742232;80;21601;-55
2021/11/18 10:39:55;;;;;;;28.83;17.95;;;;;;;4.45;57.27;100162.11;1744586;80;21574;-55
2021/11/18 10:42:33;;;;;;;26.37;16.23;;;;;;;4.72;57.14;100155.73;1739636;80;21514;-55
2021/11/18 10:45:08;;;;;;;27.52;17.45;;;;;;;4.87;56.71;100158.63;1740243;80;21462;-53
2021/11/18 10:47:55;;;;;;;20.95;14.87;;;;;;;4.71;56.90;100153.14;1729537;80;21749;-56
2021/11/18 10:50:46;;;;;;;19.57;15.43;;;;;;;4.49;57.31;100162.05;1730755;80;21538;-57
2021/11/18 10:53:23;;;;;;;27.00;16.77;;;;;;;4.21;58.10;100153.63;1736379;80;21603;-56
2021/11/18 10:55:55;;;;;;;26.05;18.80;;;;;;;4.08;58.69;100154.61;1737505;80;21590;-56
2021/11/18 10:58:30;;;;;;;55.20;32.88;;;;;;;4.15;58.85;100152.83;1709060;80;21615;-56
2021/11/18 11:01:04;;;;;;;30.75;17.65;;;;;;;4.12;58.92;100152.39;1735847;80;21748;-58
2021/11/18 11:03:40;;;;;;;24.12;17.90;;;;;;;4.16;58.77;100145.43;1737616;80;21490;-57
2021/11/18 11:06:15;;;;;;;28.10;17.52;;;;;;;4.31;58.61;100147.04;1736354;80;21477;-58
2021/11/18 11:09:11;;;;;;;25.43;17.15;;;;;;;4.61;58.00;100139.36;1736048;80;21774;-56
2021/11/18 11:12:08;;;;;;;33.80;20.40;;;;;;;4.50;57.96;100135.55;1704285;80;21513;-57
2021/11/18 11:15:33;;;;;;;38.25;27.40;;;;;;;4.32;58.51;100135.31;1737550;80;21785;-55
2021/11/18 11:18:18;;;;;;;28.57;17.25;;;;;;;4.31;58.84;100119.70;1733533;80;21920;-55
2021/11/18 11:21:12;;;;;;;21.33;18.12;;;;;;;4.19;59.05;100128.50;1738166;80;21596;-55
2021/11/18 11:23:59;;;;;;;21.95;17.15;;;;;;;3.97;59.57;100121.30;1738853;80;21526;-57
2021/11/18 11:26:46;;;;;;;93.60;75.28;;;;;;;3.81;60.00;100130.53;1737469;80;22169;-57
2021/11/18 11:29:33;;;;;;;;;;;;;;;3.85;60.35;100132.23;1737009;80;21812;-56
2021/11/18 11:32:47;;;;;;;27.27;17.00;;;;;;;3.80;60.69;100118.83;1737917;80;20431;-56
2021/11/18 11:35:37;;;;;;;66.62;48.45;;;;;;;3.79;60.71;100120.58;1736528;80;21532;-59
2021/11/18 11:38:43;;;;;;;27.50;19.23;;;;;;;3.82;60.58;100120.53;1728791;80;21491;-56
2021/11/18 11:42:01;;;;;;;26.52;15.43;;;;;;;3.86;60.53;100115.77;1727981;81;20994;-57
2021/11/18 11:44:53;;;;;;;47.25;38.70;;;;;;;3.96;60.55;100120.45;1708924;82;21792;-56
2021/11/18 11:47:51;;;;;;;29.82;21.10;;;;;;;3.99;60.45;100113.05;1694571;82;21552;-57
2021/11/18 11:50:32;;;;;;;28.05;14.55;;;;;;;3.90;60.60;100109.66;1697497;82;21510;-57
2021/11/18 11:53:16;;;;;;;31.48;21.57;;;;;;;3.90;60.54;100108.35;1716903;81;21549;-55
2021/11/18 11:55:55;;;;;;;26.15;18.85;;;;;;;4.01;60.36;100103.48;1715978;82;21603;-55
2021/11/18 11:58:42;;;;;;;22.75;15.20;;;;;;;4.10;60.30;100107.31;1701854;81;22116;-56
2021/11/18 12:01:32;;;;;;;21.15;13.80;;;;;;;4.13;60.20;100112.94;1700397;82;21478;-55